Terminal Aerodrome Forecast
Issued by NWS Wakefield, VA

Home | Current Version | Previous Version | Text Only | Print | Product List | Glossary On
Versions: 1 2 3 4 5 6 7 8 9 10 11 12 13 14 15
000
FTUS41 KAKQ 041739
TAFSBY
TAF
KSBY 041739Z 0418/0518 24012G20KT P6SM SCT050 SCT250
     FM042300 22010KT P6SM VCTS BKN050CB
      TEMPO 0423/0502 4SM -TSRA BKN030CB
     FM050300 20004KT P6SM SCT080 SCT250
     FM051200 30008KT P6SM SKC=

USA.gov is the U.S. government's official web portal to all federal, state and local government web resources and services.